createdAt,value
2023-05-09T00:01:27.681Z,12.07
2023-05-09T00:03:54.613Z,12.04
2023-05-09T00:06:21.727Z,12.10
2023-05-09T00:11:17.008Z,12.08
2023-05-09T00:13:44.391Z,12.12
2023-05-09T00:16:11.358Z,12.21
2023-05-09T00:18:38.279Z,12.25
2023-05-09T00:21:05.262Z,12.16
2023-05-09T00:23:32.111Z,12.18
2023-05-09T00:25:59.271Z,12.11
2023-05-09T00:28:27.583Z,12.04
2023-05-09T00:30:54.378Z,12.08
2023-05-09T00:33:21.342Z,12.12
2023-05-09T00:35:48.695Z,12.12
2023-05-09T00:38:15.666Z,12.21
2023-05-09T00:40:42.581Z,12.24
2023-05-09T00:43:09.463Z,12.30
2023-05-09T00:45:37.744Z,12.36
2023-05-09T00:48:05.222Z,12.41
2023-05-09T00:50:32.267Z,12.43
2023-05-09T00:52:59.520Z,12.45
2023-05-09T00:55:27.316Z,12.45
2023-05-09T00:58:12.691Z,12.51
2023-05-09T01:00:41.763Z,12.54
2023-05-09T01:03:09.225Z,12.56
2023-05-09T01:05:42.845Z,12.57
2023-05-09T01:08:15.129Z,12.62
2023-05-09T01:10:45.780Z,12.64
2023-05-09T01:13:18.371Z,12.64
2023-05-09T01:15:52.593Z,12.67
2023-05-09T01:18:29.904Z,12.62
2023-05-09T01:21:01.906Z,12.54
2023-05-09T01:23:51.260Z,12.51
2023-05-09T01:26:22.148Z,12.43
2023-05-09T01:29:10.980Z,12.38
2023-05-09T01:31:40.418Z,12.27
2023-05-09T01:34:08.793Z,12.12
2023-05-09T01:36:35.617Z,12.08
2023-05-09T01:39:02.862Z,12.15
2023-05-09T01:41:31.913Z,12.11
2023-05-09T01:44:01.030Z,12.04
2023-05-09T01:46:29.551Z,12.05
2023-05-09T01:48:57.855Z,11.99
2023-05-09T01:51:24.688Z,11.92
2023-05-09T01:53:51.894Z,11.86
2023-05-09T01:56:19.869Z,11.81
2023-05-09T01:58:48.458Z,11.77
2023-05-09T02:01:15.781Z,11.78
2023-05-09T02:03:45.600Z,11.76
2023-05-09T02:06:12.996Z,11.71
2023-05-09T02:08:40.115Z,11.64
2023-05-09T02:11:07.722Z,11.59
2023-05-09T02:13:34.885Z,11.60
2023-05-09T02:16:01.872Z,11.63
2023-05-09T02:18:29.559Z,11.68
2023-05-09T02:20:57.982Z,11.74
2023-05-09T02:23:24.728Z,11.83
2023-05-09T02:25:54.270Z,11.85
2023-05-09T02:28:23.646Z,11.93
2023-05-09T02:30:51.621Z,12.00
2023-05-09T02:33:18.610Z,12.08
2023-05-09T02:35:46.598Z,12.18
2023-05-09T02:38:15.497Z,12.23
2023-05-09T02:40:44.440Z,12.27
2023-05-09T02:43:11.646Z,12.35
2023-05-09T02:45:38.723Z,12.38
2023-05-09T02:48:08.757Z,12.47
2023-05-09T02:50:38.472Z,12.49
2023-05-09T02:53:06.232Z,12.51
2023-05-09T02:55:34.625Z,12.50
2023-05-09T02:58:11.988Z,12.51
2023-05-09T03:00:41.416Z,12.52
2023-05-09T03:03:09.004Z,12.52
2023-05-09T03:05:36.045Z,12.59
2023-05-09T03:08:03.058Z,12.60
2023-05-09T03:10:30.483Z,12.51
2023-05-09T03:12:58.744Z,12.45
2023-05-09T03:15:25.510Z,12.45
2023-05-09T03:17:52.493Z,12.42
2023-05-09T03:20:21.701Z,12.41
2023-05-09T03:22:49.558Z,12.39
2023-05-09T03:25:17.176Z,12.43
2023-05-09T03:27:44.659Z,12.47
2023-05-09T03:30:16.477Z,12.41
2023-05-09T03:32:45.838Z,12.37
2023-05-09T03:35:13.225Z,12.35
2023-05-09T03:37:40.585Z,12.33
2023-05-09T03:40:09.186Z,12.30
2023-05-09T03:42:42.643Z,12.30
2023-05-09T03:45:11.141Z,12.31
2023-05-09T03:47:39.613Z,12.34
2023-05-09T03:50:07.134Z,12.33
2023-05-09T03:52:37.265Z,12.33
2023-05-09T03:55:06.000Z,12.26
2023-05-09T03:57:35.886Z,12.18
2023-05-09T04:00:04.966Z,12.24
2023-05-09T04:02:42.354Z,12.16
2023-05-09T04:05:17.463Z,12.05
2023-05-09T04:07:45.582Z,12.09
2023-05-09T04:10:12.719Z,12.20
2023-05-09T04:12:39.785Z,12.11
2023-05-09T04:15:08.325Z,12.05
2023-05-09T04:17:36.095Z,12.07
2023-05-09T04:20:06.673Z,12.00
2023-05-09T04:22:33.614Z,12.06
2023-05-09T04:25:01.043Z,12.20
2023-05-09T04:27:28.344Z,12.21
2023-05-09T04:29:55.865Z,12.25
2023-05-09T04:32:23.355Z,12.30
2023-05-09T04:34:50.944Z,12.26
2023-05-09T04:37:23.751Z,12.27
2023-05-09T04:39:50.864Z,12.37
2023-05-09T04:42:26.258Z,12.48
2023-05-09T04:44:53.435Z,12.54
2023-05-09T04:47:22.061Z,12.63
2023-05-09T04:49:48.974Z,12.75
2023-05-09T04:52:16.853Z,12.88
2023-05-09T04:54:45.188Z,12.94
2023-05-09T04:57:18.059Z,12.96
2023-05-09T04:59:50.715Z,13.00
2023-05-09T05:02:18.708Z,13.07
2023-05-09T05:04:47.352Z,13.16
2023-05-09T05:07:14.990Z,13.25
2023-05-09T05:09:45.607Z,13.37
2023-05-09T05:12:12.489Z,13.49
2023-05-09T05:14:41.273Z,13.56
2023-05-09T05:17:10.152Z,13.63
2023-05-09T05:19:37.076Z,13.70
2023-05-09T05:22:06.007Z,13.76
2023-05-09T05:24:33.885Z,13.83
2023-05-09T05:27:03.234Z,13.87
2023-05-09T05:29:30.089Z,13.88
2023-05-09T05:31:57.094Z,13.94
2023-05-09T05:34:24.175Z,13.93
2023-05-09T05:36:51.558Z,13.97
2023-05-09T05:39:18.686Z,13.91
2023-05-09T05:41:45.618Z,13.89
2023-05-09T05:44:13.943Z,13.99
2023-05-09T05:46:41.422Z,13.99
2023-05-09T05:49:08.417Z,13.99
2023-05-09T05:51:35.372Z,14.04
2023-05-09T05:54:03.386Z,14.01
2023-05-09T05:56:30.829Z,14.01
2023-05-09T05:58:58.205Z,14.00
2023-05-09T06:01:26.820Z,14.02
2023-05-09T06:03:56.078Z,14.04
2023-05-09T06:06:26.691Z,13.94
2023-05-09T06:08:55.485Z,13.84
2023-05-09T06:11:23.507Z,13.87
2023-05-09T06:13:50.400Z,13.86
2023-05-09T06:16:19.855Z,13.80
2023-05-09T06:18:53.334Z,13.71
2023-05-09T06:21:21.979Z,13.93
2023-05-09T06:24:05.095Z,14.12
2023-05-09T06:26:35.544Z,14.60
2023-05-09T06:29:02.392Z,14.78
2023-05-09T06:31:29.888Z,14.83
2023-05-09T06:33:58.292Z,14.80
2023-05-09T06:36:24.946Z,14.58
2023-05-09T06:38:51.928Z,14.46
2023-05-09T06:41:18.811Z,14.41
2023-05-09T06:43:45.797Z,14.40
2023-05-09T06:46:12.700Z,14.45
2023-05-09T06:48:39.720Z,14.35
2023-05-09T06:51:08.371Z,14.37
2023-05-09T06:53:35.261Z,14.32
2023-05-09T06:56:02.177Z,14.33
2023-05-09T06:58:29.262Z,14.39
2023-05-09T07:00:56.236Z,14.44
2023-05-09T07:03:23.934Z,14.43
2023-05-09T07:05:52.461Z,14.33
2023-05-09T07:08:20.732Z,14.07
2023-05-09T07:10:47.467Z,13.84
2023-05-09T07:13:14.403Z,13.78
2023-05-09T07:15:42.998Z,13.68
2023-05-09T07:18:10.487Z,13.73
2023-05-09T07:20:37.433Z,13.74
2023-05-09T07:23:04.407Z,13.66
2023-05-09T07:25:32.738Z,13.61
2023-05-09T07:28:00.196Z,13.71
2023-05-09T07:30:27.316Z,13.73
2023-05-09T07:32:54.219Z,13.82
2023-05-09T07:35:21.572Z,13.93
2023-05-09T07:37:48.510Z,13.94
2023-05-09T07:40:15.920Z,13.97
2023-05-09T07:42:50.082Z,14.08
2023-05-09T07:45:18.822Z,14.18
2023-05-09T07:47:47.001Z,14.35
2023-05-09T07:50:13.951Z,14.36
2023-05-09T07:52:40.933Z,14.39
2023-05-09T07:55:08.543Z,14.27
2023-05-09T07:57:35.997Z,14.16
2023-05-09T08:00:06.462Z,14.20
2023-05-09T08:02:40.625Z,14.29
2023-05-09T08:05:11.501Z,14.56
2023-05-09T08:07:39.338Z,14.58
2023-05-09T08:10:07.552Z,14.73
2023-05-09T08:12:34.224Z,14.87
2023-05-09T08:15:01.220Z,14.96
2023-05-09T08:17:29.601Z,15.06
2023-05-09T08:19:56.615Z,15.14
2023-05-09T08:22:24.720Z,15.20
2023-05-09T08:24:51.683Z,15.21
2023-05-09T08:27:18.582Z,15.29
2023-05-09T08:29:45.507Z,15.31
2023-05-09T08:32:12.659Z,15.32
2023-05-09T08:34:41.071Z,15.27
2023-05-09T08:37:08.063Z,15.29
2023-05-09T08:39:35.355Z,15.24
2023-05-09T08:42:02.960Z,15.21
2023-05-09T08:44:31.349Z,15.15
2023-05-09T08:47:00.727Z,14.93
2023-05-09T08:49:28.192Z,14.44
2023-05-09T08:51:57.046Z,14.42
2023-05-09T08:54:24.725Z,14.25
2023-05-09T08:56:51.807Z,14.16
2023-05-09T08:59:19.505Z,14.24
2023-05-09T09:01:46.799Z,14.08
2023-05-09T09:04:13.822Z,14.01
2023-05-09T09:06:41.059Z,14.11
2023-05-09T09:09:09.567Z,14.16
2023-05-09T09:11:37.739Z,14.14
2023-05-09T09:14:07.461Z,13.96
2023-05-09T09:16:36.282Z,13.85
2023-05-09T09:19:05.634Z,13.92
2023-05-09T09:21:33.013Z,13.71
2023-05-09T09:24:00.500Z,13.64
2023-05-09T09:26:31.748Z,13.58
2023-05-09T09:28:58.726Z,13.50
2023-05-09T09:31:28.536Z,13.52
2023-05-09T09:33:59.504Z,13.51
2023-05-09T09:36:27.788Z,13.57
2023-05-09T09:38:57.838Z,13.52
2023-05-09T09:41:32.153Z,13.48
2023-05-09T09:43:59.170Z,13.51
2023-05-09T09:46:26.305Z,13.50
2023-05-09T09:48:56.784Z,13.45
2023-05-09T09:51:27.679Z,13.47
2023-05-09T09:53:54.584Z,13.39
2023-05-09T09:56:22.285Z,13.35
2023-05-09T09:58:50.596Z,13.36
2023-05-09T10:01:17.318Z,13.28
2023-05-09T10:03:45.927Z,13.24
2023-05-09T10:06:13.922Z,13.36
2023-05-09T10:08:41.177Z,13.47
2023-05-09T10:11:08.857Z,13.49
2023-05-09T10:13:36.611Z,13.55
2023-05-09T10:16:06.217Z,13.47
2023-05-09T10:18:33.932Z,13.37
2023-05-09T10:21:02.786Z,13.49
2023-05-09T10:23:31.423Z,13.54
2023-05-09T10:26:06.745Z,13.65
2023-05-09T10:28:35.906Z,13.77
2023-05-09T10:31:12.891Z,13.81
2023-05-09T10:33:43.608Z,13.69
2023-05-09T10:36:10.917Z,13.78
2023-05-09T10:38:37.861Z,13.83
2023-05-09T10:41:05.576Z,13.95
2023-05-09T10:43:36.125Z,14.08
2023-05-09T10:46:03.959Z,14.13
2023-05-09T10:48:51.184Z,14.18
2023-05-09T10:51:18.345Z,14.17
2023-05-09T10:53:46.640Z,14.18
2023-05-09T10:56:24.123Z,14.22
2023-05-09T10:58:51.004Z,14.29
2023-05-09T11:01:30.586Z,14.21
2023-05-09T11:04:00.253Z,14.15
2023-05-09T11:06:46.250Z,14.16
2023-05-09T11:09:34.656Z,14.08
2023-05-09T11:12:09.193Z,13.97
2023-05-09T11:14:42.385Z,14.00
2023-05-09T11:17:11.091Z,14.13
2023-05-09T11:20:01.912Z,14.21
2023-05-09T11:22:30.840Z,14.31
2023-05-09T11:25:04.612Z,14.45
2023-05-09T11:27:42.481Z,14.48
2023-05-09T11:30:11.154Z,14.49
2023-05-09T11:32:44.056Z,14.49
2023-05-09T11:35:17.899Z,14.35
2023-05-09T11:37:49.794Z,14.20
2023-05-09T11:40:17.657Z,14.13
2023-05-09T11:42:45.672Z,14.20
2023-05-09T11:45:15.750Z,14.28
2023-05-09T11:47:43.097Z,14.32
2023-05-09T11:50:13.372Z,14.27
2023-05-09T11:52:40.721Z,14.31
2023-05-09T11:55:10.927Z,14.18
2023-05-09T11:57:40.881Z,14.14
2023-05-09T12:00:10.427Z,14.05
2023-05-09T12:02:37.860Z,13.90
2023-05-09T12:05:09.458Z,13.77
2023-05-09T12:07:39.514Z,13.72
2023-05-09T12:10:08.693Z,13.69
2023-05-09T12:12:36.356Z,13.72
2023-05-09T12:15:04.768Z,13.76
2023-05-09T12:17:32.034Z,13.61
2023-05-09T12:20:00.352Z,13.52
2023-05-09T12:22:27.643Z,13.42
2023-05-09T12:24:56.147Z,13.23
2023-05-09T12:27:23.307Z,13.19
2023-05-09T12:29:50.906Z,13.18
2023-05-09T12:32:18.501Z,12.90
2023-05-09T12:34:47.743Z,12.91
2023-05-09T12:37:16.807Z,12.83
2023-05-09T12:39:44.675Z,12.85
2023-05-09T12:42:15.794Z,12.78
2023-05-09T12:44:49.193Z,12.59
2023-05-09T12:47:16.325Z,12.42
2023-05-09T12:49:43.298Z,12.26
2023-05-09T12:52:18.179Z,12.13
2023-05-09T12:54:46.341Z,12.13
2023-05-09T12:57:22.912Z,12.16
2023-05-09T12:59:50.150Z,12.10
2023-05-09T13:02:17.787Z,12.01
2023-05-09T13:04:44.864Z,11.98
2023-05-09T13:07:11.827Z,11.98
2023-05-09T13:09:54.471Z,12.02
2023-05-09T13:12:23.212Z,12.14
2023-05-09T13:14:50.240Z,12.14
2023-05-09T13:17:17.170Z,12.18
2023-05-09T13:19:44.045Z,12.23
2023-05-09T13:22:12.354Z,12.43
2023-05-09T13:24:39.516Z,12.50
2023-05-09T13:27:06.474Z,12.47
2023-05-09T13:29:34.761Z,12.41
2023-05-09T13:32:01.746Z,12.37
2023-05-09T13:34:28.790Z,12.37
2023-05-09T13:36:55.710Z,12.31
2023-05-09T13:39:22.720Z,12.29
2023-05-09T13:41:51.320Z,12.24
2023-05-09T13:44:18.361Z,12.25
2023-05-09T13:46:46.936Z,12.33
2023-05-09T13:49:13.930Z,12.40
2023-05-09T13:51:41.112Z,12.42
2023-05-09T13:54:27.004Z,12.39
2023-05-09T13:56:53.951Z,12.57
2023-05-09T13:59:20.878Z,12.64
2023-05-09T14:01:49.208Z,12.68
2023-05-09T14:04:16.334Z,12.54
2023-05-09T14:06:48.182Z,12.33
2023-05-09T14:09:15.744Z,12.43
2023-05-09T14:11:42.848Z,12.46
2023-05-09T14:14:09.837Z,12.32
2023-05-09T14:16:36.781Z,12.27
2023-05-09T14:19:05.107Z,12.18
2023-05-09T14:21:32.042Z,12.02
2023-05-09T14:23:59.011Z,12.04
2023-05-09T14:26:26.746Z,12.06
2023-05-09T14:28:54.132Z,12.12
2023-05-09T14:31:21.172Z,11.99
2023-05-09T14:33:48.129Z,12.01
2023-05-09T14:36:16.761Z,12.04
2023-05-09T14:38:44.306Z,12.00
2023-05-09T14:41:11.388Z,11.86
2023-05-09T14:43:38.304Z,11.98
2023-05-09T14:46:05.599Z,11.96
2023-05-09T14:48:32.845Z,11.79
2023-05-09T14:51:00.266Z,11.67
2023-05-09T14:53:28.754Z,11.73
2023-05-09T14:55:56.112Z,11.65
2023-05-09T14:58:23.646Z,11.63
2023-05-09T15:00:50.812Z,11.64
2023-05-09T15:03:17.972Z,11.69
2023-05-09T15:05:44.972Z,11.62
2023-05-09T15:08:11.936Z,11.55
2023-05-09T15:10:40.376Z,11.54
2023-05-09T15:13:07.723Z,11.59
2023-05-09T15:15:34.710Z,11.42
2023-05-09T15:18:02.621Z,11.42
2023-05-09T15:20:29.612Z,11.45
2023-05-09T15:22:56.619Z,11.43
2023-05-09T15:25:23.701Z,11.41
2023-05-09T15:27:51.942Z,11.40
2023-05-09T15:30:18.985Z,11.46
2023-05-09T15:32:46.052Z,11.49
2023-05-09T15:35:13.733Z,11.52
2023-05-09T15:37:40.629Z,11.58
2023-05-09T15:40:09.288Z,11.58
2023-05-09T15:42:36.574Z,11.62
2023-05-09T15:45:05.521Z,11.64
2023-05-09T15:47:32.715Z,11.62
2023-05-09T15:49:59.688Z,11.60
2023-05-09T15:52:27.837Z,11.62
2023-05-09T15:54:55.007Z,11.54
2023-05-09T15:57:22.065Z,11.50
2023-05-09T15:59:48.983Z,11.52
2023-05-09T16:02:17.400Z,11.56
2023-05-09T16:04:44.426Z,11.55
2023-05-09T16:07:11.636Z,11.57
2023-05-09T16:09:38.660Z,11.56
2023-05-09T16:12:05.780Z,11.50
2023-05-09T16:14:32.775Z,11.44
2023-05-09T16:16:59.731Z,11.41
2023-05-09T16:19:27.998Z,11.45
2023-05-09T16:21:55.003Z,11.42
2023-05-09T16:24:21.990Z,11.29
2023-05-09T16:26:48.884Z,11.30
2023-05-09T16:29:15.813Z,11.31
2023-05-09T16:31:44.955Z,11.33
2023-05-09T16:34:12.093Z,11.25
2023-05-09T16:36:40.446Z,11.18
2023-05-09T16:39:07.580Z,11.09
2023-05-09T16:41:34.875Z,11.01
2023-05-09T16:44:01.740Z,10.96
2023-05-09T16:46:28.678Z,10.92
2023-05-09T16:48:55.857Z,10.84
2023-05-09T16:51:22.825Z,10.86
2023-05-09T16:53:51.237Z,10.88
2023-05-09T16:56:18.072Z,10.81
2023-05-09T16:58:44.992Z,10.84
2023-05-09T17:01:12.064Z,10.84
2023-05-09T17:03:38.982Z,10.75
2023-05-09T17:06:06.530Z,10.76
2023-05-09T17:08:33.433Z,10.73
2023-05-09T17:11:01.701Z,10.68
2023-05-09T17:13:28.658Z,10.63
2023-05-09T17:15:55.913Z,10.53
2023-05-09T17:18:35.896Z,10.54
2023-05-09T17:21:04.551Z,10.49
2023-05-09T17:23:31.938Z,10.40
2023-05-09T17:25:58.845Z,10.45
2023-05-09T17:28:27.204Z,10.40
2023-05-09T17:30:54.143Z,10.40
2023-05-09T17:33:21.341Z,10.39
2023-05-09T17:35:49.655Z,10.39
2023-05-09T17:38:16.792Z,10.35
2023-05-09T17:40:44.272Z,10.35
2023-05-09T17:43:11.172Z,10.31
2023-05-09T17:45:39.627Z,10.32
2023-05-09T17:48:07.244Z,10.30
2023-05-09T17:50:34.466Z,10.32
2023-05-09T17:53:01.488Z,10.26
2023-05-09T17:55:28.901Z,10.25
2023-05-09T17:57:55.756Z,10.19
2023-05-09T18:00:22.714Z,10.18
2023-05-09T18:02:51.630Z,10.05
2023-05-09T18:05:18.753Z,10.02
2023-05-09T18:07:45.683Z,9.97
2023-05-09T18:10:12.986Z,9.87
2023-05-09T18:12:40.231Z,9.90
2023-05-09T18:15:08.435Z,9.83
2023-05-09T18:17:35.483Z,9.84
2023-05-09T18:20:04.834Z,9.83
2023-05-09T18:22:31.950Z,9.88
2023-05-09T18:24:59.141Z,9.89
2023-05-09T18:27:26.116Z,9.87
2023-05-09T18:29:52.982Z,9.91
2023-05-09T18:32:20.732Z,9.97
2023-05-09T18:34:48.587Z,9.98
2023-05-09T18:37:17.668Z,10.06
2023-05-09T18:39:44.917Z,10.08
2023-05-09T18:42:12.933Z,10.03
2023-05-09T18:44:41.577Z,9.94
2023-05-09T18:47:08.577Z,9.89
2023-05-09T18:49:35.590Z,9.83
2023-05-09T18:52:02.662Z,9.76
2023-05-09T18:54:31.068Z,9.74
2023-05-09T18:56:58.117Z,9.70
2023-05-09T18:59:25.047Z,9.60
2023-05-09T19:01:52.072Z,9.61
2023-05-09T19:04:19.618Z,9.58
2023-05-09T19:06:46.930Z,9.56
2023-05-09T19:09:13.955Z,9.56
2023-05-09T19:11:42.340Z,9.55
2023-05-09T19:14:09.323Z,9.55
2023-05-09T19:16:36.314Z,9.57
2023-05-09T19:19:03.310Z,9.56
2023-05-09T19:21:30.346Z,9.60
2023-05-09T19:23:57.270Z,9.62
2023-05-09T19:26:24.193Z,9.57
2023-05-09T19:28:52.558Z,9.53
2023-05-09T19:31:20.562Z,9.51
2023-05-09T19:33:50.133Z,9.49
2023-05-09T19:36:18.381Z,9.47
2023-05-09T19:38:45.555Z,9.41
2023-05-09T19:41:13.959Z,9.38
2023-05-09T19:43:41.076Z,9.33
2023-05-09T19:46:09.482Z,9.31
2023-05-09T19:48:36.474Z,9.35
2023-05-09T19:51:04.124Z,9.31
2023-05-09T19:53:31.033Z,9.34
2023-05-09T19:55:57.992Z,9.32
2023-05-09T19:58:24.838Z,9.34
2023-05-09T20:00:51.965Z,9.36
2023-05-09T20:03:20.504Z,9.28
2023-05-09T20:05:47.504Z,9.21
2023-05-09T20:08:14.497Z,9.17
2023-05-09T20:10:41.363Z,9.19
2023-05-09T20:13:08.543Z,9.23
2023-05-09T20:15:35.496Z,9.12
2023-05-09T20:18:03.725Z,9.14
2023-05-09T20:20:32.283Z,9.04
2023-05-09T20:22:59.155Z,9.06
2023-05-09T20:25:26.112Z,9.08
2023-05-09T20:27:53.018Z,9.11
2023-05-09T20:30:20.058Z,9.07
2023-05-09T20:32:47.044Z,9.08
2023-05-09T20:35:13.997Z,9.18
2023-05-09T20:37:42.282Z,9.21
2023-05-09T20:40:10.323Z,9.14
2023-05-09T20:42:37.923Z,9.14
2023-05-09T20:45:05.470Z,9.18
2023-05-09T20:47:32.647Z,9.25
2023-05-09T20:49:59.687Z,9.26
2023-05-09T20:52:26.760Z,9.29
2023-05-09T20:54:55.077Z,9.20
2023-05-09T20:57:22.095Z,9.19
2023-05-09T20:59:48.997Z,9.16
2023-05-09T21:02:15.936Z,9.11
2023-05-09T21:04:42.985Z,9.09
2023-05-09T21:07:10.061Z,9.15
2023-05-09T21:09:37.109Z,9.10
2023-05-09T21:12:05.960Z,9.10
2023-05-09T21:14:32.919Z,9.17
2023-05-09T21:17:00.059Z,9.19
2023-05-09T21:19:27.801Z,9.26
2023-05-09T21:21:54.793Z,9.22
2023-05-09T21:24:21.680Z,9.20
2023-05-09T21:26:48.638Z,9.24
2023-05-09T21:29:16.966Z,9.29
2023-05-09T21:31:44.034Z,9.30
2023-05-09T21:34:10.995Z,9.26
2023-05-09T21:36:41.008Z,9.19
2023-05-09T21:39:11.757Z,9.12
2023-05-09T21:41:40.042Z,9.16
2023-05-09T21:44:11.349Z,9.18
2023-05-09T21:46:40.025Z,9.14
2023-05-09T21:49:07.094Z,9.09
2023-05-09T21:51:34.268Z,9.09
2023-05-09T21:54:01.360Z,9.05
2023-05-09T21:56:28.420Z,9.07
2023-05-09T21:58:55.503Z,9.08
2023-05-09T22:01:22.543Z,9.08
2023-05-09T22:03:51.613Z,9.12
2023-05-09T22:06:18.673Z,9.16
2023-05-09T22:08:45.814Z,9.14
2023-05-09T22:11:14.235Z,9.12
2023-05-09T22:13:42.538Z,9.16
2023-05-09T22:16:09.447Z,9.18
2023-05-09T22:18:36.419Z,9.15
2023-05-09T22:21:05.556Z,9.16
2023-05-09T22:23:32.422Z,9.17
2023-05-09T22:25:59.381Z,9.14
2023-05-09T22:28:27.464Z,9.18
2023-05-09T22:30:54.353Z,9.19
2023-05-09T22:33:21.381Z,9.18
2023-05-09T22:35:48.257Z,9.11
2023-05-09T22:38:16.568Z,9.08
2023-05-09T22:40:43.759Z,9.10
2023-05-09T22:43:11.212Z,9.09
2023-05-09T22:45:38.296Z,9.04
2023-05-09T22:48:06.052Z,9.03
2023-05-09T22:50:32.977Z,9.02
2023-05-09T22:53:00.256Z,8.94
2023-05-09T22:55:28.800Z,8.95
2023-05-09T22:57:55.826Z,8.96
2023-05-09T23:00:22.845Z,8.94
2023-05-09T23:02:49.954Z,8.92
2023-05-09T23:05:16.987Z,8.96
2023-05-09T23:07:44.435Z,9.00
2023-05-09T23:10:11.503Z,8.99
2023-05-09T23:12:39.828Z,8.91
2023-05-09T23:15:07.941Z,8.96
2023-05-09T23:17:34.956Z,8.93
2023-05-09T23:20:01.964Z,8.88
2023-05-09T23:22:29.091Z,8.81
2023-05-09T23:24:56.091Z,8.79
2023-05-09T23:27:23.055Z,8.82
2023-05-09T23:29:51.443Z,8.86
2023-05-09T23:32:18.346Z,8.88
2023-05-09T23:34:45.478Z,8.91
2023-05-09T23:37:12.483Z,8.89
2023-05-09T23:39:39.447Z,8.88
2023-05-09T23:42:06.398Z,8.92
2023-05-09T23:44:33.445Z,8.82
2023-05-09T23:47:02.321Z,8.77
2023-05-09T23:49:29.225Z,8.76
2023-05-09T23:51:56.099Z,8.75
2023-05-09T23:54:24.631Z,8.80
2023-05-09T23:56:51.671Z,8.72
2023-05-09T23:59:18.656Z,8.65
